Big Piney, WY

9:32 AM MST on March 02, 2015 (GMT -0700)
Big Piney-Marbleton | Change Station
CLOSE
Current Station
Airport
Location: Big Piney,
Elevation: 6969 ft
Nearby Weather Stations
Active Advisory: Special Statement

Elev 6969 ft 42.59 °N, 110.11 °W | Updated 39 minutes ago

Overcast
Overcast
20 °F
Feels Like 20 °F
N
0
Wind Variable Wind from North

Today
High -- | Low -- °F
--% Chance of Precip.
Yesterday
High -- | Low -- °F
Precip. -- in
6:54 AM 6:11 PM
Waxing Gibbous, 92% visible
Pressure 29.95 in
Visibility 10.0 miles
Clouds Overcast 5500 ft
Dew Point 15 °F
Humidity 81%
Rainfall 0.00 in
Snow Depth Not available.
UV 0 out of 12
Pollen .70 out of 12
Air Quality Not available.
Flu Activity Not available.
METAR KBPI 021553Z AUTO 00000KT 10SM OVC055 M07/M09 A2985 RMK AO2 SLP142 T10671094

More Conditions Fewer Conditions

Pressure 29.95 in
Visibility 10.0 miles
Clouds Overcast 5500 ft
Dew Point 15 °F
Humidity 81%
Rainfall 0.00 in
Snow Depth Not available.
UV 0 out of 12
Pollen .70 out of 12
Air Quality Not available.
Flu Activity Not available.
METAR KBPI 021553Z AUTO 00000KT 10SM OVC055 M07/M09 A2985 RMK AO2 SLP142 T10671094

More Conditions Fewer Conditions

10-Day Weather Forecast

Almanac

Astronomy

Mar. 02, 2015 Rise Set
Actual Time
Civil Twilight
Nautical Twilight
Astronomical Twilight
Moon
Length of Visible Light
Length of Day
Tomorrow will be .
, % of the Moon is Illuminated

Today's Extremes

State Highs State Lows

Community

WunderPhotos

Upload Photos

1,801,840 photos uploaded!

WunderBlogs® & News

Nearby

Air Quality

  Air Quality AQ Index Pollutant
Not available.

Snow Depth

Station Depth Elevation

Earthquake Activity

City Distance Mag. Time & Date
Minimum magnitude displayed is 2.5.

Coastal Water Temperatures

Place Temperature

Nearby Weather Stations

Special Statement
Statement as of 1:53 AM MST on March 02, 2015

A change to wintry and much colder conditions are expected
tonight and Tuesday. Some snow will first move into southwest and
southern Wyoming... including Sublette and southern Lincoln
counties... as a storm system moves across Colorado this afternoon.
A second... much colder system will then move in from the north
this evening. Temperatures will drop rapidly behind a cold front
as it tracks south through the state. Periods of gusty wind and
light to moderate snow will blanket the area tonight and Tuesday.
Most valleys and basins across western Wyoming will accumulate
less than 2 inches of new snow... with around 6 inches of new snow
expected in the mountains. Gusty winds will create areas of
blowing and drifting snow... especially on mountain passes... along
with low wind chills dipping well below zero. The snow will clear
from north to south late Tuesday with a very cold night expected
Tuesday night into Wednesday morning.


Team Riverton/21